sensor_id;sensor_type;location;lat;lon;timestamp;temperature;humidity
36586;DHT22;22591;48.314;11.562;2023-03-19T00:01:27;8.10;99.90
36586;DHT22;22591;48.314;11.562;2023-03-19T00:03:53;8.00;99.90
36586;DHT22;22591;48.314;11.562;2023-03-19T00:06:19;7.90;99.90
36586;DHT22;22591;48.314;11.562;2023-03-19T00:08:45;7.80;99.90
36586;DHT22;22591;48.314;11.562;2023-03-19T00:11:12;7.80;99.90
36586;DHT22;22591;48.314;11.562;2023-03-19T00:13:38;7.70;99.90
36586;DHT22;22591;48.314;11.562;2023-03-19T00:16:05;7.70;99.90
36586;DHT22;22591;48.314;11.562;2023-03-19T00:18:31;7.70;99.90
36586;DHT22;22591;48.314;11.562;2023-03-19T00:20:57;7.60;99.90
36586;DHT22;22591;48.314;11.562;2023-03-19T00:23:22;7.50;99.90
36586;DHT22;22591;48.314;11.562;2023-03-19T00:25:48;7.30;99.90
36586;DHT22;22591;48.314;11.562;2023-03-19T00:28:14;7.20;99.90
36586;DHT22;22591;48.314;11.562;2023-03-19T00:30:39;7.10;99.90
36586;DHT22;22591;48.314;11.562;2023-03-19T00:33:05;7.00;99.90
36586;DHT22;22591;48.314;11.562;2023-03-19T00:35:30;7.00;99.90
36586;DHT22;22591;48.314;11.562;2023-03-19T00:37:57;6.90;99.90
36586;DHT22;22591;48.314;11.562;2023-03-19T00:40:22;6.90;99.90
36586;DHT22;22591;48.314;11.562;2023-03-19T00:42:48;6.80;99.90
36586;DHT22;22591;48.314;11.562;2023-03-19T00:45:13;6.90;99.90
36586;DHT22;22591;48.314;11.562;2023-03-19T00:47:39;6.80;99.90
36586;DHT22;22591;48.314;11.562;2023-03-19T00:50:05;6.80;99.90
36586;DHT22;22591;48.314;11.562;2023-03-19T00:52:31;6.80;99.90
36586;DHT22;22591;48.314;11.562;2023-03-19T00:54:57;6.70;99.90
36586;DHT22;22591;48.314;11.562;2023-03-19T00:57:23;6.60;99.90
36586;DHT22;22591;48.314;11.562;2023-03-19T00:59:48;6.60;99.90
36586;DHT22;22591;48.314;11.562;2023-03-19T01:02:14;6.60;99.90
36586;DHT22;22591;48.314;11.562;2023-03-19T01:04:40;6.60;99.90
36586;DHT22;22591;48.314;11.562;2023-03-19T01:07:05;6.70;99.90
36586;DHT22;22591;48.314;11.562;2023-03-19T01:09:31;6.80;99.90
36586;DHT22;22591;48.314;11.562;2023-03-19T01:11:57;6.70;99.90
36586;DHT22;22591;48.314;11.562;2023-03-19T01:14:23;6.60;99.90
36586;DHT22;22591;48.314;11.562;2023-03-19T01:16:48;6.50;99.90
36586;DHT22;22591;48.314;11.562;2023-03-19T01:19:14;6.40;99.90
36586;DHT22;22591;48.314;11.562;2023-03-19T01:21:40;6.30;99.90
36586;DHT22;22591;48.314;11.562;2023-03-19T01:24:10;6.20;99.90
36586;DHT22;22591;48.314;11.562;2023-03-19T01:26:36;6.20;99.90
36586;DHT22;22591;48.314;11.562;2023-03-19T01:29:01;6.10;99.90
36586;DHT22;22591;48.314;11.562;2023-03-19T01:31:27;6.00;99.90
36586;DHT22;22591;48.314;11.562;2023-03-19T01:33:53;6.10;99.90
36586;DHT22;22591;48.314;11.562;2023-03-19T01:36:18;6.00;99.90
36586;DHT22;22591;48.314;11.562;2023-03-19T01:38:44;5.90;99.90
36586;DHT22;22591;48.314;11.562;2023-03-19T01:41:09;6.00;99.90
36586;DHT22;22591;48.314;11.562;2023-03-19T01:43:35;6.00;99.90
36586;DHT22;22591;48.314;11.562;2023-03-19T01:46:13;5.90;99.90
36586;DHT22;22591;48.314;11.562;2023-03-19T01:48:46;5.80;99.90
36586;DHT22;22591;48.314;11.562;2023-03-19T01:51:15;5.80;99.90
36586;DHT22;22591;48.314;11.562;2023-03-19T01:53:45;5.70;99.90
36586;DHT22;22591;48.314;11.562;2023-03-19T01:56:16;5.70;99.90
36586;DHT22;22591;48.314;11.562;2023-03-19T01:58:45;5.70;99.90
36586;DHT22;22591;48.314;11.562;2023-03-19T02:01:13;5.70;99.90
36586;DHT22;22591;48.314;11.562;2023-03-19T02:03:39;5.70;99.90
36586;DHT22;22591;48.314;11.562;2023-03-19T02:06:05;5.70;99.90
36586;DHT22;22591;48.314;11.562;2023-03-19T02:08:32;5.80;99.90
36586;DHT22;22591;48.314;11.562;2023-03-19T02:10:59;5.80;99.90
36586;DHT22;22591;48.314;11.562;2023-03-19T02:13:26;5.90;99.90
36586;DHT22;22591;48.314;11.562;2023-03-19T02:15:53;5.80;99.90
36586;DHT22;22591;48.314;11.562;2023-03-19T02:18:19;5.80;99.90
36586;DHT22;22591;48.314;11.562;2023-03-19T02:24:02;6.00;99.90
36586;DHT22;22591;48.314;11.562;2023-03-19T02:26:32;5.90;99.90
36586;DHT22;22591;48.314;11.562;2023-03-19T02:28:58;5.90;99.90
36586;DHT22;22591;48.314;11.562;2023-03-19T02:31:23;5.90;99.90
36586;DHT22;22591;48.314;11.562;2023-03-19T02:36:50;6.00;99.90
36586;DHT22;22591;48.314;11.562;2023-03-19T02:40:28;6.00;99.90
36586;DHT22;22591;48.314;11.562;2023-03-19T02:42:23;6.00;99.90
36586;DHT22;22591;48.314;11.562;2023-03-19T02:44:50;6.00;99.90
36586;DHT22;22591;48.314;11.562;2023-03-19T02:47:16;6.00;99.90
36586;DHT22;22591;48.314;11.562;2023-03-19T02:49:42;5.90;99.90
36586;DHT22;22591;48.314;11.562;2023-03-19T02:52:08;5.90;99.90
36586;DHT22;22591;48.314;11.562;2023-03-19T02:54:33;6.00;99.90
36586;DHT22;22591;48.314;11.562;2023-03-19T02:56:59;6.00;99.90
36586;DHT22;22591;48.314;11.562;2023-03-19T02:59:25;6.00;99.90
36586;DHT22;22591;48.314;11.562;2023-03-19T03:01:51;5.90;99.90
36586;DHT22;22591;48.314;11.562;2023-03-19T03:04:16;5.90;99.90
36586;DHT22;22591;48.314;11.562;2023-03-19T03:06:43;5.90;99.90
36586;DHT22;22591;48.314;11.562;2023-03-19T03:09:09;5.80;99.90
36586;DHT22;22591;48.314;11.562;2023-03-19T03:11:36;5.70;99.90
36586;DHT22;22591;48.314;11.562;2023-03-19T03:14:01;5.70;99.90
36586;DHT22;22591;48.314;11.562;2023-03-19T03:16:27;5.70;99.90
36586;DHT22;22591;48.314;11.562;2023-03-19T03:18:52;5.80;99.90
36586;DHT22;22591;48.314;11.562;2023-03-19T03:21:18;5.70;99.90
36586;DHT22;22591;48.314;11.562;2023-03-19T03:23:46;5.70;99.90
36586;DHT22;22591;48.314;11.562;2023-03-19T03:26:12;5.80;99.90
36586;DHT22;22591;48.314;11.562;2023-03-19T03:28:38;5.70;99.90
36586;DHT22;22591;48.314;11.562;2023-03-19T03:31:03;5.70;99.90
36586;DHT22;22591;48.314;11.562;2023-03-19T03:33:29;5.70;99.90
36586;DHT22;22591;48.314;11.562;2023-03-19T03:35:55;5.80;99.90
36586;DHT22;22591;48.314;11.562;2023-03-19T03:38:21;5.80;99.90
36586;DHT22;22591;48.314;11.562;2023-03-19T03:40:51;5.70;99.90
36586;DHT22;22591;48.314;11.562;2023-03-19T03:43:18;5.70;99.90
36586;DHT22;22591;48.314;11.562;2023-03-19T03:45:45;5.70;99.90
36586;DHT22;22591;48.314;11.562;2023-03-19T03:48:12;5.70;99.90
36586;DHT22;22591;48.314;11.562;2023-03-19T03:50:38;5.70;99.90
36586;DHT22;22591;48.314;11.562;2023-03-19T03:53:03;5.70;99.90
36586;DHT22;22591;48.314;11.562;2023-03-19T03:55:30;5.70;99.90
36586;DHT22;22591;48.314;11.562;2023-03-19T03:57:56;5.60;99.90
36586;DHT22;22591;48.314;11.562;2023-03-19T04:00:22;5.60;99.90
36586;DHT22;22591;48.314;11.562;2023-03-19T04:02:48;5.70;99.90
36586;DHT22;22591;48.314;11.562;2023-03-19T04:05:14;5.80;99.90
36586;DHT22;22591;48.314;11.562;2023-03-19T04:07:40;5.80;99.90
36586;DHT22;22591;48.314;11.562;2023-03-19T04:10:07;5.80;99.90
36586;DHT22;22591;48.314;11.562;2023-03-19T04:12:33;5.80;99.90
36586;DHT22;22591;48.314;11.562;2023-03-19T04:14:59;5.80;99.90
36586;DHT22;22591;48.314;11.562;2023-03-19T04:17:25;5.80;99.90
36586;DHT22;22591;48.314;11.562;2023-03-19T04:19:50;5.80;99.90
36586;DHT22;22591;48.314;11.562;2023-03-19T04:22:16;5.80;99.90
36586;DHT22;22591;48.314;11.562;2023-03-19T04:24:41;5.80;99.90
36586;DHT22;22591;48.314;11.562;2023-03-19T04:27:07;5.80;99.90
36586;DHT22;22591;48.314;11.562;2023-03-19T04:29:33;5.80;99.90
36586;DHT22;22591;48.314;11.562;2023-03-19T04:31:58;5.70;99.90
36586;DHT22;22591;48.314;11.562;2023-03-19T04:34:24;5.70;99.90
36586;DHT22;22591;48.314;11.562;2023-03-19T04:36:50;5.70;99.90
36586;DHT22;22591;48.314;11.562;2023-03-19T04:39:16;5.80;99.90
36586;DHT22;22591;48.314;11.562;2023-03-19T04:41:42;5.80;99.90
36586;DHT22;22591;48.314;11.562;2023-03-19T04:44:08;5.80;99.90
36586;DHT22;22591;48.314;11.562;2023-03-19T04:46:33;5.80;99.90
36586;DHT22;22591;48.314;11.562;2023-03-19T04:48:59;5.90;99.90
36586;DHT22;22591;48.314;11.562;2023-03-19T04:51:26;5.90;99.90
36586;DHT22;22591;48.314;11.562;2023-03-19T04:53:51;5.90;99.90
36586;DHT22;22591;48.314;11.562;2023-03-19T04:56:17;6.00;99.90
36586;DHT22;22591;48.314;11.562;2023-03-19T04:58:44;6.00;99.90
36586;DHT22;22591;48.314;11.562;2023-03-19T05:01:09;6.10;99.90
36586;DHT22;22591;48.314;11.562;2023-03-19T05:03:35;6.10;99.90
36586;DHT22;22591;48.314;11.562;2023-03-19T05:06:01;6.20;99.90
36586;DHT22;22591;48.314;11.562;2023-03-19T05:08:26;6.20;99.90
36586;DHT22;22591;48.314;11.562;2023-03-19T05:10:52;6.20;99.90
36586;DHT22;22591;48.314;11.562;2023-03-19T05:13:17;6.20;99.90
36586;DHT22;22591;48.314;11.562;2023-03-19T05:15:44;6.20;99.90
36586;DHT22;22591;48.314;11.562;2023-03-19T05:18:10;6.30;99.90
36586;DHT22;22591;48.314;11.562;2023-03-19T05:20:36;6.30;99.90
36586;DHT22;22591;48.314;11.562;2023-03-19T05:23:01;6.40;99.90
36586;DHT22;22591;48.314;11.562;2023-03-19T05:25:27;6.40;99.90
36586;DHT22;22591;48.314;11.562;2023-03-19T05:27:54;6.30;99.90
36586;DHT22;22591;48.314;11.562;2023-03-19T05:30:20;6.40;99.90
36586;DHT22;22591;48.314;11.562;2023-03-19T05:32:45;6.40;99.90
36586;DHT22;22591;48.314;11.562;2023-03-19T05:35:12;6.40;99.90
36586;DHT22;22591;48.314;11.562;2023-03-19T05:37:38;6.40;99.90
36586;DHT22;22591;48.314;11.562;2023-03-19T05:40:05;6.40;99.90
36586;DHT22;22591;48.314;11.562;2023-03-19T05:42:30;6.40;99.90
36586;DHT22;22591;48.314;11.562;2023-03-19T05:44:56;6.40;99.90
36586;DHT22;22591;48.314;11.562;2023-03-19T05:47:21;6.50;99.90
36586;DHT22;22591;48.314;11.562;2023-03-19T05:49:47;6.50;99.90
36586;DHT22;22591;48.314;11.562;2023-03-19T05:52:13;6.60;99.90
36586;DHT22;22591;48.314;11.562;2023-03-19T05:54:38;6.60;99.90
36586;DHT22;22591;48.314;11.562;2023-03-19T05:57:05;6.60;99.90
36586;DHT22;22591;48.314;11.562;2023-03-19T05:59:32;6.60;99.90
36586;DHT22;22591;48.314;11.562;2023-03-19T06:01:58;6.70;99.90
36586;DHT22;22591;48.314;11.562;2023-03-19T06:04:24;6.90;99.90
36586;DHT22;22591;48.314;11.562;2023-03-19T06:06:50;7.00;99.90
36586;DHT22;22591;48.314;11.562;2023-03-19T06:09:15;7.00;99.90
36586;DHT22;22591;48.314;11.562;2023-03-19T06:11:41;7.00;99.90
36586;DHT22;22591;48.314;11.562;2023-03-19T06:14:07;7.00;99.90
36586;DHT22;22591;48.314;11.562;2023-03-19T06:16:33;7.10;99.90
36586;DHT22;22591;48.314;11.562;2023-03-19T06:18:58;7.10;99.90
36586;DHT22;22591;48.314;11.562;2023-03-19T06:21:24;7.30;99.90
36586;DHT22;22591;48.314;11.562;2023-03-19T06:23:54;7.50;99.90
36586;DHT22;22591;48.314;11.562;2023-03-19T06:26:20;7.60;99.90
36586;DHT22;22591;48.314;11.562;2023-03-19T06:28:45;7.70;99.90
36586;DHT22;22591;48.314;11.562;2023-03-19T06:31:11;7.80;99.90
36586;DHT22;22591;48.314;11.562;2023-03-19T06:33:36;7.80;99.90
36586;DHT22;22591;48.314;11.562;2023-03-19T06:36:02;7.80;99.90
36586;DHT22;22591;48.314;11.562;2023-03-19T06:38:27;7.80;99.90
36586;DHT22;22591;48.314;11.562;2023-03-19T06:40:53;8.00;99.90
36586;DHT22;22591;48.314;11.562;2023-03-19T06:43:19;8.20;99.90
36586;DHT22;22591;48.314;11.562;2023-03-19T06:45:45;8.40;99.90
36586;DHT22;22591;48.314;11.562;2023-03-19T06:48:11;8.40;99.90
36586;DHT22;22591;48.314;11.562;2023-03-19T06:50:36;8.70;99.90
36586;DHT22;22591;48.314;11.562;2023-03-19T06:53:02;8.80;99.90
36586;DHT22;22591;48.314;11.562;2023-03-19T06:55:28;8.90;99.90
36586;DHT22;22591;48.314;11.562;2023-03-19T06:57:55;8.90;99.90
36586;DHT22;22591;48.314;11.562;2023-03-19T07:00:21;8.90;99.90
36586;DHT22;22591;48.314;11.562;2023-03-19T07:02:47;9.00;99.90
36586;DHT22;22591;48.314;11.562;2023-03-19T07:05:13;9.10;99.90
36586;DHT22;22591;48.314;11.562;2023-03-19T07:07:39;9.30;99.90
36586;DHT22;22591;48.314;11.562;2023-03-19T07:10:05;9.40;99.90
36586;DHT22;22591;48.314;11.562;2023-03-19T07:12:31;9.60;99.90
36586;DHT22;22591;48.314;11.562;2023-03-19T07:14:56;9.70;99.90
36586;DHT22;22591;48.314;11.562;2023-03-19T07:17:22;9.90;99.90
36586;DHT22;22591;48.314;11.562;2023-03-19T07:19:48;10.00;99.90
36586;DHT22;22591;48.314;11.562;2023-03-19T07:22:14;10.10;99.90
36586;DHT22;22591;48.314;11.562;2023-03-19T07:24:40;10.30;99.90
36586;DHT22;22591;48.314;11.562;2023-03-19T07:27:06;10.40;99.90
36586;DHT22;22591;48.314;11.562;2023-03-19T07:29:31;10.50;99.90
36586;DHT22;22591;48.314;11.562;2023-03-19T07:31:57;10.70;99.90
36586;DHT22;22591;48.314;11.562;2023-03-19T07:34:23;10.80;99.90
36586;DHT22;22591;48.314;11.562;2023-03-19T07:36:48;10.90;99.90
36586;DHT22;22591;48.314;11.562;2023-03-19T07:39:15;11.10;99.90
36586;DHT22;22591;48.314;11.562;2023-03-19T07:41:41;11.30;99.90
36586;DHT22;22591;48.314;11.562;2023-03-19T07:44:09;11.40;99.90
36586;DHT22;22591;48.314;11.562;2023-03-19T07:46:35;11.60;99.90
36586;DHT22;22591;48.314;11.562;2023-03-19T07:49:00;11.60;99.90
36586;DHT22;22591;48.314;11.562;2023-03-19T07:51:26;11.70;99.90
36586;DHT22;22591;48.314;11.562;2023-03-19T07:53:51;11.80;99.90
36586;DHT22;22591;48.314;11.562;2023-03-19T07:56:17;11.90;99.90
36586;DHT22;22591;48.314;11.562;2023-03-19T07:58:42;12.00;99.90
36586;DHT22;22591;48.314;11.562;2023-03-19T08:01:08;12.10;99.90
36586;DHT22;22591;48.314;11.562;2023-03-19T08:03:33;12.50;99.90
36586;DHT22;22591;48.314;11.562;2023-03-19T08:05:59;12.70;99.90
36586;DHT22;22591;48.314;11.562;2023-03-19T08:08:24;13.00;99.90
36586;DHT22;22591;48.314;11.562;2023-03-19T08:10:52;13.20;99.90
36586;DHT22;22591;48.314;11.562;2023-03-19T08:13:18;13.30;99.90
36586;DHT22;22591;48.314;11.562;2023-03-19T08:15:44;13.30;99.90
36586;DHT22;22591;48.314;11.562;2023-03-19T08:18:09;13.30;99.90
36586;DHT22;22591;48.314;11.562;2023-03-19T08:20:35;13.30;99.90
36586;DHT22;22591;48.314;11.562;2023-03-19T08:23:01;13.20;99.90
36586;DHT22;22591;48.314;11.562;2023-03-19T08:25:26;12.80;99.90
36586;DHT22;22591;48.314;11.562;2023-03-19T08:27:56;12.70;99.90
36586;DHT22;22591;48.314;11.562;2023-03-19T08:30:22;12.80;99.90
36586;DHT22;22591;48.314;11.562;2023-03-19T08:32:47;12.90;99.90
36586;DHT22;22591;48.314;11.562;2023-03-19T08:35:14;13.00;99.90
36586;DHT22;22591;48.314;11.562;2023-03-19T08:37:40;12.90;99.90
36586;DHT22;22591;48.314;11.562;2023-03-19T08:40:07;12.90;99.90
36586;DHT22;22591;48.314;11.562;2023-03-19T08:42:33;12.90;99.90
36586;DHT22;22591;48.314;11.562;2023-03-19T08:44:59;12.90;99.90
36586;DHT22;22591;48.314;11.562;2023-03-19T08:47:24;13.10;99.90
36586;DHT22;22591;48.314;11.562;2023-03-19T08:49:50;13.30;99.90
36586;DHT22;22591;48.314;11.562;2023-03-19T08:52:17;13.60;99.90
36586;DHT22;22591;48.314;11.562;2023-03-19T08:54:43;14.20;99.90
36586;DHT22;22591;48.314;11.562;2023-03-19T08:57:09;14.50;99.90
36586;DHT22;22591;48.314;11.562;2023-03-19T08:59:36;14.80;99.90
36586;DHT22;22591;48.314;11.562;2023-03-19T09:02:01;14.80;99.90
36586;DHT22;22591;48.314;11.562;2023-03-19T09:04:28;14.80;99.90
36586;DHT22;22591;48.314;11.562;2023-03-19T09:06:53;14.60;99.90
36586;DHT22;22591;48.314;11.562;2023-03-19T09:09:20;14.70;99.90
36586;DHT22;22591;48.314;11.562;2023-03-19T09:11:47;14.90;99.90
36586;DHT22;22591;48.314;11.562;2023-03-19T09:14:13;14.80;99.90
36586;DHT22;22591;48.314;11.562;2023-03-19T09:16:41;14.70;99.90
36586;DHT22;22591;48.314;11.562;2023-03-19T09:19:07;14.80;99.90
36586;DHT22;22591;48.314;11.562;2023-03-19T09:21:34;14.80;99.90
36586;DHT22;22591;48.314;11.562;2023-03-19T09:24:00;14.70;99.90
36586;DHT22;22591;48.314;11.562;2023-03-19T09:26:26;14.90;99.90
36586;DHT22;22591;48.314;11.562;2023-03-19T09:28:52;15.20;99.90
36586;DHT22;22591;48.314;11.562;2023-03-19T09:31:17;15.30;99.90
36586;DHT22;22591;48.314;11.562;2023-03-19T09:33:43;15.40;99.80
36586;DHT22;22591;48.314;11.562;2023-03-19T09:36:08;15.40;99.80
36586;DHT22;22591;48.314;11.562;2023-03-19T09:38:34;15.30;99.60
36586;DHT22;22591;48.314;11.562;2023-03-19T09:41:07;15.00;99.80
36586;DHT22;22591;48.314;11.562;2023-03-19T09:46:08;14.40;99.90
36586;DHT22;22591;48.314;11.562;2023-03-19T09:48:57;14.40;99.90
36586;DHT22;22591;48.314;11.562;2023-03-19T09:51:38;14.30;99.90
36586;DHT22;22591;48.314;11.562;2023-03-19T09:54:29;14.30;99.90
36586;DHT22;22591;48.314;11.562;2023-03-19T09:56:55;14.30;99.90
36586;DHT22;22591;48.314;11.562;2023-03-19T09:59:22;14.30;99.90
36586;DHT22;22591;48.314;11.562;2023-03-19T10:02:21;14.20;99.90
36586;DHT22;22591;48.314;11.562;2023-03-19T10:10:27;13.70;99.90
36586;DHT22;22591;48.314;11.562;2023-03-19T10:13:01;13.60;99.90
36586;DHT22;22591;48.314;11.562;2023-03-19T10:15:31;13.40;99.90
36586;DHT22;22591;48.314;11.562;2023-03-19T10:23:46;13.00;99.90
36586;DHT22;22591;48.314;11.562;2023-03-19T10:26:17;13.00;99.90
36586;DHT22;22591;48.314;11.562;2023-03-19T10:28:47;13.10;99.90
36586;DHT22;22591;48.314;11.562;2023-03-19T10:31:27;13.00;99.90
36586;DHT22;22591;48.314;11.562;2023-03-19T10:36:43;12.90;99.90
36586;DHT22;22591;48.314;11.562;2023-03-19T10:39:09;12.80;99.90
36586;DHT22;22591;48.314;11.562;2023-03-19T10:44:24;12.70;99.90
36586;DHT22;22591;48.314;11.562;2023-03-19T10:46:52;12.70;99.90
36586;DHT22;22591;48.314;11.562;2023-03-19T10:49:21;12.50;99.90
36586;DHT22;22591;48.314;11.562;2023-03-19T10:51:47;12.60;99.90
36586;DHT22;22591;48.314;11.562;2023-03-19T10:54:24;12.70;99.90
36586;DHT22;22591;48.314;11.562;2023-03-19T10:56:50;12.70;99.90
36586;DHT22;22591;48.314;11.562;2023-03-19T10:59:22;12.70;99.90
36586;DHT22;22591;48.314;11.562;2023-03-19T11:01:48;12.80;99.90
36586;DHT22;22591;48.314;11.562;2023-03-19T11:04:20;12.80;99.90
36586;DHT22;22591;48.314;11.562;2023-03-19T11:06:53;12.80;99.90
36586;DHT22;22591;48.314;11.562;2023-03-19T11:09:40;12.90;99.90
36586;DHT22;22591;48.314;11.562;2023-03-19T11:14:46;13.20;99.90
36586;DHT22;22591;48.314;11.562;2023-03-19T11:17:38;13.50;99.90
36586;DHT22;22591;48.314;11.562;2023-03-19T11:20:32;13.60;99.90
36586;DHT22;22591;48.314;11.562;2023-03-19T11:23:00;14.10;99.90
36586;DHT22;22591;48.314;11.562;2023-03-19T11:25:36;14.40;99.90
36586;DHT22;22591;48.314;11.562;2023-03-19T11:28:10;14.60;99.90
36586;DHT22;22591;48.314;11.562;2023-03-19T11:41:58;15.70;99.90
36586;DHT22;22591;48.314;11.562;2023-03-19T11:44:43;15.80;99.90
36586;DHT22;22591;48.314;11.562;2023-03-19T11:53:00;16.30;98.30
36586;DHT22;22591;48.314;11.562;2023-03-19T11:55:36;16.40;98.90
36586;DHT22;22591;48.314;11.562;2023-03-19T12:00:55;16.40;98.00
36586;DHT22;22591;48.314;11.562;2023-03-19T12:08:44;16.60;96.60
36586;DHT22;22591;48.314;11.562;2023-03-19T12:14:01;16.10;97.10
36586;DHT22;22591;48.314;11.562;2023-03-19T12:16:40;16.10;96.70
36586;DHT22;22591;48.314;11.562;2023-03-19T12:19:27;16.10;96.50
36586;DHT22;22591;48.314;11.562;2023-03-19T12:22:05;16.10;96.50
36586;DHT22;22591;48.314;11.562;2023-03-19T12:24:55;16.30;96.70
36586;DHT22;22591;48.314;11.562;2023-03-19T12:27:35;16.50;96.40
36586;DHT22;22591;48.314;11.562;2023-03-19T12:35:45;16.40;96.20
36586;DHT22;22591;48.314;11.562;2023-03-19T12:38:26;16.40;96.70
36586;DHT22;22591;48.314;11.562;2023-03-19T12:40:58;16.60;96.40
36586;DHT22;22591;48.314;11.562;2023-03-19T12:46:19;16.60;95.10
36586;DHT22;22591;48.314;11.562;2023-03-19T12:48:51;16.80;95.60
36586;DHT22;22591;48.314;11.562;2023-03-19T12:51:24;16.70;95.50
36586;DHT22;22591;48.314;11.562;2023-03-19T12:54:40;16.60;96.20
36586;DHT22;22591;48.314;11.562;2023-03-19T12:56:48;16.40;96.30
36586;DHT22;22591;48.314;11.562;2023-03-19T12:59:28;16.30;95.50
36586;DHT22;22591;48.314;11.562;2023-03-19T13:05:18;15.70;95.90
36586;DHT22;22591;48.314;11.562;2023-03-19T13:07:57;15.30;96.50
36586;DHT22;22591;48.314;11.562;2023-03-19T13:10:25;14.90;97.10
36586;DHT22;22591;48.314;11.562;2023-03-19T13:12:52;14.70;97.30
36586;DHT22;22591;48.314;11.562;2023-03-19T13:15:32;14.70;98.50
36586;DHT22;22591;48.314;11.562;2023-03-19T13:23:37;14.50;99.20
36586;DHT22;22591;48.314;11.562;2023-03-19T13:26:07;14.30;99.70
36586;DHT22;22591;48.314;11.562;2023-03-19T13:28:36;14.20;99.90
36586;DHT22;22591;48.314;11.562;2023-03-19T13:31:05;14.20;99.90
36586;DHT22;22591;48.314;11.562;2023-03-19T13:33:33;14.30;99.90
36586;DHT22;22591;48.314;11.562;2023-03-19T13:36:04;14.60;99.90
36586;DHT22;22591;48.314;11.562;2023-03-19T13:38:42;14.70;99.50
36586;DHT22;22591;48.314;11.562;2023-03-19T13:44:28;14.80;99.50
36586;DHT22;22591;48.314;11.562;2023-03-19T13:47:47;14.70;99.50
36586;DHT22;22591;48.314;11.562;2023-03-19T13:50:20;14.50;99.70
36586;DHT22;22591;48.314;11.562;2023-03-19T13:52:49;14.60;99.90
36586;DHT22;22591;48.314;11.562;2023-03-19T13:58:12;14.90;99.50
36586;DHT22;22591;48.314;11.562;2023-03-19T14:01:01;15.20;99.50
36586;DHT22;22591;48.314;11.562;2023-03-19T14:03:30;15.60;99.00
36586;DHT22;22591;48.314;11.562;2023-03-19T14:05:56;15.90;98.50
36586;DHT22;22591;48.314;11.562;2023-03-19T14:08:26;16.10;98.40
36586;DHT22;22591;48.314;11.562;2023-03-19T14:10:55;16.10;97.90
36586;DHT22;22591;48.314;11.562;2023-03-19T14:13:31;16.20;97.70
36586;DHT22;22591;48.314;11.562;2023-03-19T14:16:21;16.20;97.70
36586;DHT22;22591;48.314;11.562;2023-03-19T14:18:48;16.50;97.50
36586;DHT22;22591;48.314;11.562;2023-03-19T14:21:15;16.80;96.70
36586;DHT22;22591;48.314;11.562;2023-03-19T14:23:51;17.00;96.40
36586;DHT22;22591;48.314;11.562;2023-03-19T14:26:24;16.60;96.50
36586;DHT22;22591;48.314;11.562;2023-03-19T14:29:05;16.30;96.80
36586;DHT22;22591;48.314;11.562;2023-03-19T14:34:24;15.80;97.70
36586;DHT22;22591;48.314;11.562;2023-03-19T14:37:03;15.80;97.40
36586;DHT22;22591;48.314;11.562;2023-03-19T14:39:38;15.80;97.10
36586;DHT22;22591;48.314;11.562;2023-03-19T14:45:20;15.90;96.50
36586;DHT22;22591;48.314;11.562;2023-03-19T14:54:02;15.50;95.30
36586;DHT22;22591;48.314;11.562;2023-03-19T14:56:33;15.40;95.90
36586;DHT22;22591;48.314;11.562;2023-03-19T14:59:00;15.30;96.20
36586;DHT22;22591;48.314;11.562;2023-03-19T15:01:31;15.20;97.00
36586;DHT22;22591;48.314;11.562;2023-03-19T15:04:16;15.10;97.40
36586;DHT22;22591;48.314;11.562;2023-03-19T15:06:45;15.20;97.40
36586;DHT22;22591;48.314;11.562;2023-03-19T15:09:20;15.20;97.10
36586;DHT22;22591;48.314;11.562;2023-03-19T15:15:07;15.10;96.80
36586;DHT22;22591;48.314;11.562;2023-03-19T15:17:36;15.10;97.00
36586;DHT22;22591;48.314;11.562;2023-03-19T15:20:30;15.20;97.10
36586;DHT22;22591;48.314;11.562;2023-03-19T15:23:00;15.20;96.90
36586;DHT22;22591;48.314;11.562;2023-03-19T15:25:26;15.20;95.90
36586;DHT22;22591;48.314;11.562;2023-03-19T15:28:10;15.00;95.90
36586;DHT22;22591;48.314;11.562;2023-03-19T15:30:37;14.90;95.70
36586;DHT22;22591;48.314;11.562;2023-03-19T15:33:03;14.90;96.10
36586;DHT22;22591;48.314;11.562;2023-03-19T15:35:32;14.90;96.10
36586;DHT22;22591;48.314;11.562;2023-03-19T15:38:02;15.00;96.40
36586;DHT22;22591;48.314;11.562;2023-03-19T15:40:31;14.90;96.60
36586;DHT22;22591;48.314;11.562;2023-03-19T15:43:00;14.90;96.60
36586;DHT22;22591;48.314;11.562;2023-03-19T15:45:27;14.90;96.80
36586;DHT22;22591;48.314;11.562;2023-03-19T15:47:58;14.80;96.80
36586;DHT22;22591;48.314;11.562;2023-03-19T15:50:28;14.80;96.80
36586;DHT22;22591;48.314;11.562;2023-03-19T15:53:19;14.70;97.10
36586;DHT22;22591;48.314;11.562;2023-03-19T15:55:50;14.60;97.10
36586;DHT22;22591;48.314;11.562;2023-03-19T15:58:21;14.60;97.30
36586;DHT22;22591;48.314;11.562;2023-03-19T16:00:47;14.50;97.40
36586;DHT22;22591;48.314;11.562;2023-03-19T16:03:18;14.50;97.50
36586;DHT22;22591;48.314;11.562;2023-03-19T16:05:44;14.40;97.40
36586;DHT22;22591;48.314;11.562;2023-03-19T16:08:21;14.30;97.40
36586;DHT22;22591;48.314;11.562;2023-03-19T16:10:48;14.10;97.20
36586;DHT22;22591;48.314;11.562;2023-03-19T16:13:31;14.10;97.40
36586;DHT22;22591;48.314;11.562;2023-03-19T16:16:04;14.00;97.60
36586;DHT22;22591;48.314;11.562;2023-03-19T16:18:42;13.90;97.80
36586;DHT22;22591;48.314;11.562;2023-03-19T16:21:16;13.80;98.00
36586;DHT22;22591;48.314;11.562;2023-03-19T16:23:45;13.80;98.10
36586;DHT22;22591;48.314;11.562;2023-03-19T16:26:22;13.70;98.20
36586;DHT22;22591;48.314;11.562;2023-03-19T16:31:26;13.50;98.30
36586;DHT22;22591;48.314;11.562;2023-03-19T16:33:54;13.40;98.30
36586;DHT22;22591;48.314;11.562;2023-03-19T16:36:21;13.30;98.30
36586;DHT22;22591;48.314;11.562;2023-03-19T16:39:40;13.20;98.40
36586;DHT22;22591;48.314;11.562;2023-03-19T16:41:41;13.10;98.60
36586;DHT22;22591;48.314;11.562;2023-03-19T16:44:16;12.90;98.70
36586;DHT22;22591;48.314;11.562;2023-03-19T16:46:41;12.80;98.80
36586;DHT22;22591;48.314;11.562;2023-03-19T16:49:07;12.70;99.00
36586;DHT22;22591;48.314;11.562;2023-03-19T16:51:33;12.60;99.10
36586;DHT22;22591;48.314;11.562;2023-03-19T16:53:59;12.50;99.20
36586;DHT22;22591;48.314;11.562;2023-03-19T16:56:25;12.30;99.30
36586;DHT22;22591;48.314;11.562;2023-03-19T16:58:50;12.20;99.40
36586;DHT22;22591;48.314;11.562;2023-03-19T17:01:18;12.20;99.70
36586;DHT22;22591;48.314;11.562;2023-03-19T17:03:45;12.10;99.80
36586;DHT22;22591;48.314;11.562;2023-03-19T17:06:12;12.00;99.90
36586;DHT22;22591;48.314;11.562;2023-03-19T17:08:39;11.80;99.90
36586;DHT22;22591;48.314;11.562;2023-03-19T17:11:06;11.70;99.90